Datum - Zeit
Döttingen
TemperaturTaupunktFeuchteSolar Wind aus
Richtung
Windböenaus
Richtung
Luftdruck
(QFF)
RegenRegen
Stärke
26.11.2022 - 00.00Uhr4.9 °C3.2 °C89 %0.0 W/m²2.1 km/hOst-SO4.0 km/hOst-SO1027.9 hPa0.0 mm0.0 mm/h
26.11.2022 - 00.05Uhr4.8 °C3.1 °C89 %0.0 W/m²0.0 km/hOst-SO0.0 km/hNorden1027.9 hPa0.0 mm0.0 mm/h
26.11.2022 - 00.10Uhr4.8 °C3.1 °C89 %0.0 W/m²0.0 km/hOst-SO0.0 km/hNorden1028.0 hPa0.0 mm0.0 mm/h
26.11.2022 - 00.15Uhr4.7 °C3.0 °C89 %0.0 W/m²2.1 km/hOst-SO4.0 km/hOst-SO1028.0 hPa0.0 mm0.0 mm/h
26.11.2022 - 00.20Uhr4.7 °C3.0 °C89 %0.0 W/m²3.8 km/hOst-SO8.3 km/hOst-SO1028.1 hPa0.0 mm0.0 mm/h
26.11.2022 - 00.25Uhr4.7 °C3.0 °C89 %0.0 W/m²1.6 km/hOst-SO8.3 km/hOst-SO1028.2 hPa0.0 mm0.0 mm/h
26.11.2022 - 00.30Uhr4.7 °C3.0 °C89 %0.0 W/m²1.8 km/hOst-SO4.0 km/hOst-SO1028.3 hPa0.0 mm0.0 mm/h
26.11.2022 - 00.35Uhr4.7 °C3.0 °C89 %0.0 W/m²0.0 km/hOst-SO0.0 km/hNorden1028.4 hPa0.0 mm0.0 mm/h
26.11.2022 - 00.40Uhr4.7 °C3.0 °C89 %0.0 W/m²0.0 km/hOst-SO0.0 km/hNorden1028.4 hPa0.0 mm0.0 mm/h
26.11.2022 - 00.45Uhr4.8 °C3.1 °C89 %0.0 W/m²1.9 km/hOst-SO8.3 km/hOst-SO1028.3 hPa0.0 mm0.0 mm/h
26.11.2022 - 00.50Uhr4.8 °C3.1 °C89 %0.0 W/m²2.3 km/hOst-SO8.3 km/hOst-SO1028.3 hPa0.0 mm0.0 mm/h
26.11.2022 - 00.55Uhr4.8 °C3.1 °C89 %0.0 W/m²2.4 km/hOst-SO4.0 km/hOst-SO1028.4 hPa0.0 mm0.0 mm/h
26.11.2022 - 01.00Uhr4.8 °C3.1 °C89 %0.0 W/m²1.5 km/hOst-SO4.0 km/hOst-SO1028.3 hPa0.0 mm0.0 mm/h
26.11.2022 - 01.05Uhr4.8 °C3.1 °C89 %0.0 W/m²3.5 km/hOst-SO8.3 km/hOst-SO1028.3 hPa0.0 mm0.0 mm/h
26.11.2022 - 01.10Uhr4.9 °C3.2 °C89 %0.0 W/m²1.9 km/hOst-SO4.0 km/hOst-SO1028.4 hPa0.0 mm0.0 mm/h
26.11.2022 - 01.15Uhr4.9 °C3.2 °C89 %0.0 W/m²0.0 km/hOst-SO0.0 km/hNorden1028.5 hPa0.0 mm0.0 mm/h
26.11.2022 - 01.20Uhr4.9 °C3.2 °C89 %0.0 W/m²0.0 km/hOst-SO0.0 km/hNorden1028.5 hPa0.0 mm0.0 mm/h
26.11.2022 - 01.25Uhr4.9 °C3.2 °C89 %0.0 W/m²0.0 km/hOst-SO0.0 km/hNorden1028.6 hPa0.0 mm0.0 mm/h
26.11.2022 - 01.30Uhr4.9 °C3.2 °C89 %0.0 W/m²0.0 km/hOst-SO0.0 km/hNorden1028.6 hPa0.0 mm0.0 mm/h
26.11.2022 - 01.35Uhr4.9 °C3.2 °C89 %0.0 W/m²1.2 km/hOst-SO4.0 km/hOst-SO1028.6 hPa0.0 mm0.0 mm/h
26.11.2022 - 01.40Uhr4.9 °C3.2 °C89 %0.0 W/m²0.0 km/hOst-SO0.0 km/hNorden1028.7 hPa0.0 mm0.0 mm/h
26.11.2022 - 01.45Uhr5.0 °C3.3 °C89 %0.0 W/m²0.0 km/hOst-SO0.0 km/hNorden1028.7 hPa0.0 mm0.0 mm/h
26.11.2022 - 01.50Uhr5.0 °C3.3 °C89 %0.0 W/m²0.0 km/hOst-SO0.0 km/hNorden1028.7 hPa0.0 mm0.0 mm/h
26.11.2022 - 01.55Uhr5.1 °C3.4 °C89 %0.0 W/m²0.0 km/hOst-SO0.0 km/hNorden1028.9 hPa0.0 mm0.0 mm/h
26.11.2022 - 02.00Uhr5.1 °C3.4 °C89 %0.0 W/m²0.0 km/hOst-SO0.0 km/hNorden1029.0 hPa0.0 mm0.0 mm/h
26.11.2022 - 02.05Uhr5.1 °C3.4 °C89 %0.0 W/m²0.0 km/hOst-SO0.0 km/hNorden1029.0 hPa0.0 mm0.0 mm/h
26.11.2022 - 02.10Uhr5.1 °C3.4 °C89 %0.0 W/m²0.0 km/hOst-SO0.0 km/hNorden1029.0 hPa0.0 mm0.0 mm/h
26.11.2022 - 02.15Uhr5.1 °C3.4 °C89 %0.0 W/m²0.0 km/hOst-SO0.0 km/hNorden1029.2 hPa0.0 mm0.0 mm/h
26.11.2022 - 02.20Uhr5.1 °C3.4 °C89 %0.0 W/m²0.0 km/hOst-SO0.0 km/hNorden1029.2 hPa0.0 mm0.0 mm/h
26.11.2022 - 02.25Uhr5.2 °C3.5 °C89 %0.0 W/m²0.0 km/hOst-SO0.0 km/hNorden1029.1 hPa0.0 mm0.0 mm/h
26.11.2022 - 02.30Uhr5.2 °C3.5 °C89 %0.0 W/m²0.0 km/hOst-SO0.0 km/hNorden1029.2 hPa0.0 mm0.0 mm/h
26.11.2022 - 02.35Uhr5.2 °C3.5 °C89 %0.0 W/m²0.0 km/hOst-SO0.0 km/hNorden1029.2 hPa0.0 mm0.0 mm/h
26.11.2022 - 02.40Uhr5.2 °C3.5 °C89 %0.0 W/m²0.0 km/hOst-SO0.0 km/hNorden1029.3 hPa0.0 mm0.0 mm/h
26.11.2022 - 02.45Uhr5.2 °C3.5 °C89 %0.0 W/m²0.0 km/hOst-SO0.0 km/hNorden1029.5 hPa0.0 mm0.0 mm/h
26.11.2022 - 02.50Uhr5.2 °C3.5 °C89 %0.0 W/m²0.0 km/hOst-SO0.0 km/hNorden1029.5 hPa0.0 mm0.0 mm/h
26.11.2022 - 02.55Uhr5.2 °C3.5 °C89 %0.0 W/m²0.0 km/hOst-SO0.0 km/hNorden1029.6 hPa0.0 mm0.0 mm/h
26.11.2022 - 03.00Uhr5.2 °C3.5 °C89 %0.0 W/m²0.0 km/hOst-SO0.0 km/hNorden1029.6 hPa0.0 mm0.0 mm/h
26.11.2022 - 03.05Uhr5.2 °C3.5 °C89 %0.0 W/m²0.0 km/hOst-SO0.0 km/hNorden1029.7 hPa0.0 mm0.0 mm/h
26.11.2022 - 03.10Uhr5.2 °C3.5 °C89 %0.0 W/m²0.0 km/hOst-SO0.0 km/hNorden1029.8 hPa0.0 mm0.0 mm/h
26.11.2022 - 03.15Uhr5.2 °C3.5 °C89 %0.0 W/m²0.0 km/hOst-SO0.0 km/hNorden1029.9 hPa0.0 mm0.0 mm/h
26.11.2022 - 03.20Uhr5.2 °C3.5 °C89 %0.0 W/m²0.0 km/hOst-SO0.0 km/hNorden1030.0 hPa0.0 mm0.0 mm/h
26.11.2022 - 03.25Uhr5.2 °C3.5 °C89 %0.0 W/m²0.0 km/hOst-SO0.0 km/hNorden1029.9 hPa0.0 mm0.0 mm/h
26.11.2022 - 03.30Uhr5.2 °C3.5 °C89 %0.0 W/m²0.0 km/hOst-SO0.0 km/hNorden1030.0 hPa0.0 mm0.0 mm/h
26.11.2022 - 03.35Uhr5.2 °C3.5 °C89 %0.0 W/m²0.0 km/hOst-SO0.0 km/hNorden1030.0 hPa0.0 mm0.0 mm/h
26.11.2022 - 03.40Uhr5.2 °C3.5 °C89 %0.0 W/m²0.0 km/hOst-SO0.0 km/hNorden1030.1 hPa0.0 mm0.0 mm/h
26.11.2022 - 03.45Uhr5.2 °C3.5 °C89 %0.0 W/m²0.0 km/hOst-SO0.0 km/hNorden1030.2 hPa0.0 mm0.0 mm/h
26.11.2022 - 03.50Uhr5.2 °C3.5 °C89 %0.0 W/m²0.0 km/hOst-SO0.0 km/hNorden1030.2 hPa0.0 mm0.0 mm/h
26.11.2022 - 03.55Uhr5.2 °C3.5 °C89 %0.0 W/m²0.0 km/hOst-SO0.0 km/hNorden1030.2 hPa0.0 mm0.0 mm/h
26.11.2022 - 04.00Uhr5.2 °C3.5 °C89 %0.0 W/m²0.0 km/hOst-SO0.0 km/hNorden1030.2 hPa0.0 mm0.0 mm/h
26.11.2022 - 04.05Uhr5.2 °C3.5 °C89 %0.0 W/m²0.0 km/hOst-SO0.0 km/hNorden1030.2 hPa0.0 mm0.0 mm/h
26.11.2022 - 04.10Uhr5.2 °C3.5 °C89 %0.0 W/m²0.0 km/hOst-SO0.0 km/hNorden1030.2 hPa0.0 mm0.0 mm/h
26.11.2022 - 04.15Uhr5.2 °C3.5 °C89 %0.0 W/m²0.0 km/hOst-SO0.0 km/hNorden1030.3 hPa0.0 mm0.0 mm/h
26.11.2022 - 04.20Uhr5.2 °C3.5 °C89 %0.0 W/m²0.0 km/hOst-SO0.0 km/hNorden1030.3 hPa0.0 mm0.0 mm/h
26.11.2022 - 04.25Uhr5.2 °C3.5 °C89 %0.0 W/m²0.0 km/hOst-SO0.0 km/hNorden1030.3 hPa0.0 mm0.0 mm/h
26.11.2022 - 04.30Uhr5.2 °C3.5 °C89 %0.0 W/m²0.0 km/hOst-SO0.0 km/hNorden1030.3 hPa0.0 mm0.0 mm/h
26.11.2022 - 04.35Uhr5.2 °C3.5 °C89 %0.0 W/m²0.0 km/hOst-SO0.0 km/hNorden1030.4 hPa0.0 mm0.0 mm/h
26.11.2022 - 04.40Uhr5.2 °C3.5 °C89 %0.0 W/m²0.0 km/hOst-SO0.0 km/hNorden1030.4 hPa0.0 mm0.0 mm/h
26.11.2022 - 04.45Uhr5.2 °C3.5 °C89 %0.0 W/m²0.0 km/hOst-SO0.0 km/hNorden1030.4 hPa0.0 mm0.0 mm/h
26.11.2022 - 04.50Uhr5.2 °C3.5 °C89 %0.0 W/m²0.0 km/hOst-SO0.0 km/hNorden1030.3 hPa0.0 mm0.0 mm/h
26.11.2022 - 04.55Uhr5.2 °C3.5 °C89 %0.0 W/m²0.0 km/hOst-SO0.0 km/hNorden1030.3 hPa0.0 mm0.0 mm/h
26.11.2022 - 05.00Uhr5.2 °C3.5 °C89 %0.0 W/m²0.0 km/hOst-SO0.0 km/hNorden1030.3 hPa0.0 mm0.0 mm/h
26.11.2022 - 05.05Uhr5.2 °C3.5 °C89 %0.0 W/m²0.0 km/hOst-SO0.0 km/hNorden1030.3 hPa0.0 mm0.0 mm/h
26.11.2022 - 05.10Uhr5.2 °C3.5 °C89 %0.0 W/m²0.0 km/hOst-SO0.0 km/hNorden1030.4 hPa0.0 mm0.0 mm/h
26.11.2022 - 05.15Uhr5.2 °C3.5 °C89 %0.0 W/m²0.0 km/hOst-SO0.0 km/hNorden1030.3 hPa0.0 mm0.0 mm/h
26.11.2022 - 05.20Uhr5.2 °C3.5 °C89 %0.0 W/m²0.0 km/hOst-SO0.0 km/hNorden1030.2 hPa0.0 mm0.0 mm/h
26.11.2022 - 05.25Uhr5.2 °C3.5 °C89 %0.0 W/m²0.0 km/hOst-SO0.0 km/hNorden1030.2 hPa0.0 mm0.0 mm/h
26.11.2022 - 05.30Uhr5.2 °C3.5 °C89 %0.0 W/m²0.0 km/hOst-SO0.0 km/hNorden1030.2 hPa0.0 mm0.0 mm/h
26.11.2022 - 05.35Uhr5.2 °C3.5 °C89 %0.0 W/m²0.0 km/hOst-SO0.0 km/hNorden1030.2 hPa0.0 mm0.0 mm/h
26.11.2022 - 05.40Uhr5.1 °C3.4 °C89 %0.0 W/m²0.0 km/hOst-SO0.0 km/hNorden1030.3 hPa0.0 mm0.0 mm/h
26.11.2022 - 05.45Uhr5.1 °C3.4 °C89 %0.0 W/m²0.0 km/hOst-SO0.0 km/hNorden1030.4 hPa0.0 mm0.0 mm/h
26.11.2022 - 05.50Uhr5.1 °C3.4 °C89 %0.0 W/m²0.0 km/hOst-SO0.0 km/hNorden1030.4 hPa0.0 mm0.0 mm/h
26.11.2022 - 05.55Uhr5.0 °C3.3 °C89 %0.0 W/m²0.0 km/hOst-SO0.0 km/hNorden1030.4 hPa0.0 mm0.0 mm/h
26.11.2022 - 06.00Uhr5.0 °C3.9 °C93 %0.0 W/m²0.0 km/hOst-SO0.0 km/hNorden1030.4 hPa0.0 mm0.0 mm/h
26.11.2022 - 06.05Uhr4.9 °C3.2 °C89 %0.0 W/m²0.0 km/hOst-SO0.0 km/hNorden1030.4 hPa0.0 mm0.0 mm/h
26.11.2022 - 06.10Uhr4.9 °C3.2 °C89 %0.0 W/m²0.0 km/hOst-SO0.0 km/hNorden1030.5 hPa0.0 mm0.0 mm/h
26.11.2022 - 06.15Uhr4.9 °C3.2 °C89 %0.0 W/m²0.0 km/hOst-SO0.0 km/hNorden1030.6 hPa0.0 mm0.0 mm/h
26.11.2022 - 06.20Uhr4.9 °C3.2 °C89 %0.0 W/m²0.0 km/hOst-SO0.0 km/hNorden1030.6 hPa0.0 mm0.0 mm/h
26.11.2022 - 06.25Uhr4.9 °C3.2 °C89 %0.0 W/m²0.0 km/hOst-SO0.0 km/hNorden1030.7 hPa0.0 mm0.0 mm/h
26.11.2022 - 06.30Uhr4.9 °C3.2 °C89 %0.0 W/m²0.0 km/hOst-SO0.0 km/hNorden1030.8 hPa0.0 mm0.0 mm/h
26.11.2022 - 06.35Uhr4.8 °C3.1 °C89 %0.0 W/m²0.0 km/hOst-SO0.0 km/hNorden1030.9 hPa0.0 mm0.0 mm/h
26.11.2022 - 06.40Uhr4.8 °C3.1 °C89 %0.0 W/m²0.0 km/hOst-SO0.0 km/hNorden1030.9 hPa0.0 mm0.0 mm/h
26.11.2022 - 06.45Uhr4.8 °C3.1 °C89 %0.0 W/m²0.0 km/hOst-SO0.0 km/hNorden1030.9 hPa0.0 mm0.0 mm/h
26.11.2022 - 06.50Uhr4.8 °C3.1 °C89 %0.0 W/m²0.0 km/hOst-SO0.0 km/hNorden1030.9 hPa0.0 mm0.0 mm/h
26.11.2022 - 06.55Uhr4.8 °C3.1 °C89 %0.0 W/m²0.0 km/hOst-SO0.0 km/hNorden1031.0 hPa0.0 mm0.0 mm/h
26.11.2022 - 07.00Uhr4.9 °C3.2 °C89 %0.0 W/m²0.0 km/hOst-SO0.0 km/hNorden1031.0 hPa0.0 mm0.0 mm/h
26.11.2022 - 07.05Uhr4.8 °C3.1 °C89 %0.0 W/m²0.0 km/hOst-SO0.0 km/hNorden1031.1 hPa0.0 mm0.0 mm/h
26.11.2022 - 07.10Uhr4.8 °C3.1 °C89 %0.0 W/m²0.0 km/hOst-SO0.0 km/hNorden1031.2 hPa0.0 mm0.0 mm/h
26.11.2022 - 07.15Uhr4.8 °C3.1 °C89 %0.0 W/m²0.0 km/hOst-SO0.0 km/hNorden1031.2 hPa0.0 mm0.0 mm/h
26.11.2022 - 07.20Uhr4.8 °C3.1 °C89 %0.0 W/m²0.0 km/hOst-SO0.0 km/hNorden1031.2 hPa0.0 mm0.0 mm/h
26.11.2022 - 07.25Uhr4.9 °C3.2 °C89 %0.0 W/m²1.2 km/hOst-SO4.0 km/hOst-SO1031.2 hPa0.0 mm0.0 mm/h
26.11.2022 - 07.30Uhr4.9 °C3.2 °C89 %0.0 W/m²0.6 km/hOst-SO1.8 km/hOst-SO1031.4 hPa0.0 mm0.0 mm/h
26.11.2022 - 07.35Uhr4.8 °C3.1 °C89 %0.0 W/m²5.3 km/hOst-SO12.2 km/hOst-SO1031.4 hPa0.0 mm0.0 mm/h
26.11.2022 - 07.40Uhr4.8 °C3.1 °C89 %0.0 W/m²4.7 km/hOst-SO8.3 km/hOst-SO1031.5 hPa0.0 mm0.0 mm/h
26.11.2022 - 07.45Uhr4.8 °C3.1 °C89 %0.0 W/m²3.2 km/hOst-SO8.3 km/hOst-SO1031.6 hPa0.0 mm0.0 mm/h
26.11.2022 - 07.50Uhr4.7 °C3.0 °C89 %0.0 W/m²1.6 km/hOst-SO8.3 km/hOst-SO1031.7 hPa0.0 mm0.0 mm/h
26.11.2022 - 07.55Uhr4.7 °C3.0 °C89 %0.0 W/m²2.5 km/hOst-SO8.3 km/hOst-SO1031.7 hPa0.0 mm0.0 mm/h
26.11.2022 - 08.00Uhr4.6 °C2.9 °C89 %5.0 W/m²0.0 km/hOst-SO0.0 km/hNorden1031.7 hPa0.0 mm0.0 mm/h
26.11.2022 - 08.05Uhr4.6 °C2.9 °C89 %11.0 W/m²0.0 km/hOst-SO0.0 km/hNorden1031.7 hPa0.0 mm0.0 mm/h
26.11.2022 - 08.10Uhr4.6 °C2.9 °C89 %14.0 W/m²0.0 km/hOst-SO0.0 km/hNorden1031.7 hPa0.0 mm0.0 mm/h
26.11.2022 - 08.15Uhr4.6 °C2.9 °C89 %23.0 W/m²0.4 km/hOst-SO1.8 km/hOst-SO1031.7 hPa0.0 mm0.0 mm/h
26.11.2022 - 08.20Uhr4.5 °C2.8 °C89 %21.0 W/m²1.4 km/hOst-SO4.0 km/hOst-SO1031.8 hPa0.0 mm0.0 mm/h
26.11.2022 - 08.25Uhr4.5 °C2.8 °C89 %18.0 W/m²1.5 km/hOst-SO8.3 km/hOst-SO1031.9 hPa0.0 mm0.0 mm/h
26.11.2022 - 08.30Uhr4.5 °C2.8 °C89 %18.0 W/m²0.2 km/hOst-SO1.8 km/hOst-SO1032.0 hPa0.0 mm0.0 mm/h
26.11.2022 - 08.35Uhr4.5 °C2.8 °C89 %18.0 W/m²0.0 km/hOst-SO0.0 km/hNorden1032.1 hPa0.0 mm0.0 mm/h
26.11.2022 - 08.40Uhr4.4 °C2.7 °C89 %18.0 W/m²0.2 km/hOst-SO1.8 km/hOst-SO1032.2 hPa0.0 mm0.0 mm/h
26.11.2022 - 08.45Uhr4.5 °C2.8 °C89 %19.0 W/m²1.8 km/hOst-SO8.3 km/hOst-SO1032.2 hPa0.0 mm0.0 mm/h
26.11.2022 - 08.50Uhr4.5 °C2.8 °C89 %23.0 W/m²0.0 km/hOst-SO0.0 km/hNorden1032.2 hPa0.0 mm0.0 mm/h
26.11.2022 - 08.55Uhr4.5 °C2.8 °C89 %25.0 W/m²0.0 km/hOst-SO0.0 km/hNorden1032.2 hPa0.0 mm0.0 mm/h
26.11.2022 - 09.00Uhr4.6 °C2.9 °C89 %32.0 W/m²0.0 km/hOst-SO0.0 km/hNorden1032.2 hPa0.0 mm0.0 mm/h
26.11.2022 - 09.05Uhr4.6 °C2.9 °C89 %32.0 W/m²0.0 km/hOst-SO0.0 km/hNorden1032.2 hPa0.0 mm0.0 mm/h
26.11.2022 - 09.10Uhr4.6 °C2.9 °C89 %37.0 W/m²0.0 km/hOst-SO0.0 km/hNorden1032.3 hPa0.0 mm0.0 mm/h
26.11.2022 - 09.15Uhr4.7 °C3.0 °C89 %40.0 W/m²0.0 km/hOst-SO0.0 km/hNorden1032.3 hPa0.0 mm0.0 mm/h
26.11.2022 - 09.20Uhr4.7 °C3.0 °C89 %39.0 W/m²0.0 km/hOst-SO0.0 km/hNorden1032.2 hPa0.0 mm0.0 mm/h
26.11.2022 - 09.25Uhr4.7 °C3.0 °C89 %37.0 W/m²0.0 km/hOst-SO0.0 km/hNorden1032.3 hPa0.0 mm0.0 mm/h
26.11.2022 - 09.30Uhr4.8 °C3.1 °C89 %28.0 W/m²1.8 km/hOst-SO8.3 km/hOst-SO1032.3 hPa0.0 mm0.0 mm/h
26.11.2022 - 09.35Uhr4.8 °C3.1 °C89 %28.0 W/m²3.6 km/hOst-SO8.3 km/hOst-SO1032.4 hPa0.0 mm0.0 mm/h
26.11.2022 - 09.40Uhr4.8 °C3.1 °C89 %32.0 W/m²2.2 km/hOst-SO8.3 km/hOst-SO1032.3 hPa0.0 mm0.0 mm/h
26.11.2022 - 09.45Uhr4.8 °C3.1 °C89 %65.0 W/m²0.7 km/hOst-SO4.0 km/hOst-SO1032.3 hPa0.0 mm0.0 mm/h
26.11.2022 - 09.50Uhr4.8 °C3.1 °C89 %83.0 W/m²0.0 km/hOst-SO0.0 km/hNorden1032.2 hPa0.0 mm0.0 mm/h
26.11.2022 - 09.55Uhr4.8 °C3.1 °C89 %70.0 W/m²0.0 km/hOst-SO0.0 km/hNorden1032.2 hPa0.0 mm0.0 mm/h
26.11.2022 - 10.00Uhr4.8 °C3.1 °C89 %77.0 W/m²0.0 km/hOst-SO0.0 km/hNorden1032.3 hPa0.0 mm0.0 mm/h
26.11.2022 - 10.05Uhr4.8 °C3.1 °C89 %97.0 W/m²0.0 km/hOst-SO0.0 km/hNorden1032.3 hPa0.0 mm0.0 mm/h
26.11.2022 - 10.10Uhr4.8 °C3.1 °C89 %111.0 W/m²0.1 km/hOst-SO1.8 km/hOst-SO1032.3 hPa0.0 mm0.0 mm/h